createdAt,value
2023-03-26T00:00:55.873Z,11
2023-03-26T00:01:56.913Z,11
2023-03-26T00:02:57.944Z,9
2023-03-26T00:03:58.881Z,11
2023-03-26T00:04:59.912Z,11
2023-03-26T00:06:00.918Z,11
2023-03-26T00:07:01.876Z,11
2023-03-26T00:08:02.832Z,9
2023-03-26T00:09:03.814Z,9
2023-03-26T00:10:04.902Z,9
2023-03-26T00:11:05.916Z,9
2023-03-26T00:12:06.911Z,9
2023-03-26T00:13:07.872Z,11
2023-03-26T00:14:08.852Z,11
2023-03-26T00:15:09.842Z,9
2023-03-26T00:16:10.917Z,9
2023-03-26T00:17:11.940Z,9
2023-03-26T00:18:12.831Z,9
2023-03-26T00:19:13.940Z,9
2023-03-26T00:20:14.873Z,9
2023-03-26T00:21:15.875Z,9
2023-03-26T00:22:16.831Z,9
2023-03-26T00:23:17.874Z,9
2023-03-26T00:24:18.872Z,9
2023-03-26T00:25:19.898Z,9
2023-03-26T00:26:20.875Z,9
2023-03-26T00:27:21.965Z,8
2023-03-26T00:28:22.932Z,9
2023-03-26T00:29:23.902Z,9
2023-03-26T00:30:24.895Z,9
2023-03-26T00:31:26.014Z,9
2023-03-26T00:32:27.010Z,9
2023-03-26T00:33:27.914Z,10
2023-03-26T00:34:28.856Z,9
2023-03-26T00:35:29.829Z,9
2023-03-26T00:36:30.968Z,9
2023-03-26T00:37:31.856Z,9
2023-03-26T00:38:32.876Z,9
2023-03-26T00:39:33.928Z,9
2023-03-26T00:40:34.943Z,9
2023-03-26T00:41:35.980Z,9
2023-03-26T00:42:36.938Z,9
2023-03-26T00:43:37.898Z,9
2023-03-26T00:44:38.938Z,9
2023-03-26T00:45:39.861Z,9
2023-03-26T00:46:41.103Z,11
2023-03-26T00:47:41.965Z,11
2023-03-26T00:48:45.412Z,11
2023-03-26T00:49:43.850Z,9
2023-03-26T00:50:44.900Z,9
2023-03-26T00:51:45.878Z,11
2023-03-26T00:52:46.869Z,9
2023-03-26T00:53:47.998Z,9
2023-03-26T00:54:48.900Z,8
2023-03-26T00:55:49.939Z,8
2023-03-26T00:56:50.969Z,8
2023-03-26T00:57:51.893Z,8
2023-03-26T00:58:52.991Z,9
2023-03-26T00:59:53.941Z,9
2023-03-26T01:00:54.908Z,9
2023-03-26T01:01:55.899Z,9
2023-03-26T01:02:56.994Z,9
2023-03-26T01:04:07.206Z,9
2023-03-26T01:04:58.986Z,9
2023-03-26T01:05:59.899Z,9
2023-03-26T01:07:00.884Z,9
2023-03-26T01:08:01.883Z,9
2023-03-26T01:09:02.962Z,9
2023-03-26T01:10:03.915Z,9
2023-03-26T01:11:04.863Z,9
2023-03-26T01:12:05.953Z,9
2023-03-26T01:13:06.876Z,11
2023-03-26T01:14:07.924Z,11
2023-03-26T01:15:08.965Z,11
2023-03-26T01:16:09.924Z,11
2023-03-26T01:17:10.996Z,12
2023-03-26T01:18:11.920Z,12
2023-03-26T01:19:13.004Z,11
2023-03-26T01:20:13.903Z,11
2023-03-26T01:21:14.882Z,12
2023-03-26T01:22:15.916Z,11
2023-03-26T01:23:16.977Z,11
2023-03-26T01:24:17.933Z,11
2023-03-26T01:25:18.944Z,11
2023-03-26T01:26:19.959Z,11
2023-03-26T01:27:20.999Z,11
2023-03-26T01:28:22.057Z,11
2023-03-26T01:29:22.896Z,9
2023-03-26T01:30:23.877Z,11
2023-03-26T01:31:24.914Z,11
2023-03-26T01:32:25.950Z,9
2023-03-26T01:33:27.083Z,9
2023-03-26T01:34:27.938Z,9
2023-03-26T01:35:28.947Z,11
2023-03-26T01:36:29.902Z,11
2023-03-26T01:37:30.996Z,11
2023-03-26T01:38:31.934Z,11
2023-03-26T01:39:32.960Z,11
2023-03-26T01:40:33.916Z,11
2023-03-26T01:41:34.950Z,11
2023-03-26T01:42:35.924Z,11
2023-03-26T01:43:36.918Z,11
2023-03-26T01:44:37.917Z,11
2023-03-26T01:45:38.937Z,11
2023-03-26T01:46:39.983Z,11
2023-03-26T01:47:40.942Z,11
2023-03-26T01:48:41.958Z,11
2023-03-26T01:49:42.900Z,11
2023-03-26T01:50:43.996Z,11
2023-03-26T01:51:44.998Z,11
2023-03-26T01:52:45.918Z,12
2023-03-26T01:53:46.917Z,11
2023-03-26T01:54:47.904Z,11
2023-03-26T01:55:48.937Z,11
2023-03-26T01:56:50.067Z,11
2023-03-26T01:57:50.971Z,11
2023-03-26T01:58:51.935Z,11
2023-03-26T01:59:52.976Z,11
2023-03-26T02:00:53.935Z,11
2023-03-26T02:01:55.090Z,11
2023-03-26T02:02:56.035Z,11
2023-03-26T02:03:56.996Z,12
2023-03-26T02:04:57.909Z,12
2023-03-26T02:05:58.947Z,12
2023-03-26T02:06:59.917Z,12
2023-03-26T02:08:00.951Z,12
2023-03-26T02:09:01.976Z,12
2023-03-26T02:10:02.940Z,12
2023-03-26T02:11:03.946Z,12
2023-03-26T02:12:04.915Z,-1
2023-03-26T02:13:05.948Z,12
2023-03-26T02:14:06.975Z,12
2023-03-26T02:15:07.936Z,12
2023-03-26T02:16:08.986Z,12
2023-03-26T02:17:09.918Z,12
2023-03-26T02:18:10.979Z,12
2023-03-26T02:19:11.913Z,12
2023-03-26T02:20:12.934Z,14
2023-03-26T02:21:13.922Z,12
2023-03-26T02:22:14.933Z,12
2023-03-26T02:23:15.995Z,12
2023-03-26T02:24:16.974Z,12
2023-03-26T02:25:17.954Z,12
2023-03-26T02:26:18.985Z,12
2023-03-26T02:27:19.952Z,12
2023-03-26T02:28:21.000Z,12
2023-03-26T02:29:21.973Z,12
2023-03-26T02:30:23.001Z,12
2023-03-26T02:31:23.972Z,12
2023-03-26T02:32:26.253Z,12
2023-03-26T02:33:25.910Z,12
2023-03-26T02:34:26.953Z,12
2023-03-26T02:35:27.990Z,12
2023-03-26T02:36:28.971Z,12
2023-03-26T02:37:30.020Z,11
2023-03-26T02:38:30.993Z,12
2023-03-26T02:39:32.015Z,12
2023-03-26T02:40:33.013Z,12
2023-03-26T02:41:34.032Z,12
2023-03-26T02:42:34.934Z,12
2023-03-26T02:43:35.949Z,13
2023-03-26T02:44:36.997Z,12
2023-03-26T02:45:38.027Z,12
2023-03-26T02:46:39.027Z,12
2023-03-26T02:47:39.985Z,12
2023-03-26T02:48:40.947Z,13
2023-03-26T02:49:41.972Z,13
2023-03-26T02:50:43.132Z,13
2023-03-26T02:51:43.981Z,13
2023-03-26T02:52:44.951Z,13
2023-03-26T02:53:45.972Z,13
2023-03-26T02:54:46.973Z,13
2023-03-26T02:55:47.991Z,12
2023-03-26T02:56:48.969Z,13
2023-03-26T02:57:49.936Z,12
2023-03-26T02:58:51.012Z,13
2023-03-26T02:59:51.974Z,13
2023-03-26T03:00:53.063Z,12
2023-03-26T03:01:54.059Z,11
2023-03-26T03:02:55.023Z,12
2023-03-26T03:03:55.967Z,12
2023-03-26T03:04:57.050Z,12
2023-03-26T03:05:58.243Z,12
2023-03-26T03:06:59.011Z,12
2023-03-26T03:07:59.971Z,12
2023-03-26T03:09:00.975Z,12
2023-03-26T03:10:01.977Z,12
2023-03-26T03:11:02.946Z,12
2023-03-26T03:12:04.030Z,11
2023-03-26T03:13:04.993Z,11
2023-03-26T03:14:05.998Z,12
2023-03-26T03:15:06.979Z,12
2023-03-26T03:16:07.922Z,11
2023-03-26T03:17:09.035Z,12
2023-03-26T03:18:09.971Z,12
2023-03-26T03:19:10.963Z,12
2023-03-26T03:20:11.999Z,12
2023-03-26T03:21:12.971Z,11
2023-03-26T03:22:13.994Z,11
2023-03-26T03:23:14.960Z,11
2023-03-26T03:24:15.935Z,12
2023-03-26T03:25:17.001Z,12
2023-03-26T03:26:18.000Z,11
2023-03-26T03:27:18.980Z,11
2023-03-26T03:28:19.962Z,11
2023-03-26T03:29:21.018Z,11
2023-03-26T03:30:21.980Z,11
2023-03-26T03:31:23.092Z,12
2023-03-26T03:32:24.054Z,12
2023-03-26T03:33:24.978Z,12
2023-03-26T03:34:26.035Z,11
2023-03-26T03:35:26.983Z,12
2023-03-26T03:36:28.066Z,12
2023-03-26T03:37:29.050Z,12
2023-03-26T03:38:30.064Z,12
2023-03-26T03:39:31.076Z,12
2023-03-26T03:40:31.996Z,12
2023-03-26T03:41:32.996Z,11
2023-03-26T03:42:34.038Z,11
2023-03-26T03:43:34.965Z,11
2023-03-26T03:44:36.009Z,11
2023-03-26T03:45:37.046Z,11
2023-03-26T03:46:38.124Z,9
2023-03-26T03:47:39.090Z,9
2023-03-26T03:48:40.153Z,11
2023-03-26T03:49:41.006Z,11
2023-03-26T03:50:42.033Z,11
2023-03-26T03:51:43.001Z,12
2023-03-26T03:52:43.976Z,12
2023-03-26T03:53:44.958Z,12
2023-03-26T03:54:45.977Z,12
2023-03-26T03:55:46.997Z,13
2023-03-26T03:56:48.060Z,12
2023-03-26T03:57:49.097Z,11
2023-03-26T03:58:50.045Z,11
2023-03-26T03:59:51.020Z,11
2023-03-26T04:00:52.044Z,11
2023-03-26T04:01:53.116Z,11
2023-03-26T04:02:54.081Z,11
2023-03-26T04:03:55.130Z,11
2023-03-26T04:04:56.036Z,11
2023-03-26T04:05:57.126Z,11
2023-03-26T04:06:58.018Z,11
2023-03-26T04:07:59.038Z,11
2023-03-26T04:09:00.040Z,11
2023-03-26T04:10:00.963Z,12
2023-03-26T04:11:01.998Z,9
2023-03-26T04:12:02.999Z,9
2023-03-26T04:13:04.062Z,9
2023-03-26T04:14:05.031Z,9
2023-03-26T04:15:06.043Z,11
2023-03-26T04:16:07.044Z,9
2023-03-26T04:17:07.998Z,9
2023-03-26T04:18:09.052Z,9
2023-03-26T04:19:10.095Z,9
2023-03-26T04:20:11.020Z,8
2023-03-26T04:21:11.995Z,9
2023-03-26T04:22:13.043Z,9
2023-03-26T04:23:14.016Z,9
2023-03-26T04:24:14.968Z,9
2023-03-26T04:25:16.022Z,8
2023-03-26T04:26:17.008Z,8
2023-03-26T04:27:18.001Z,8
2023-03-26T04:28:18.995Z,9
2023-03-26T04:29:20.017Z,8
2023-03-26T04:30:21.049Z,8
2023-03-26T04:31:22.026Z,8
2023-03-26T04:32:23.091Z,8
2023-03-26T04:33:24.025Z,8
2023-03-26T04:34:25.049Z,8
2023-03-26T04:35:26.073Z,9
2023-03-26T04:36:27.035Z,8
2023-03-26T04:37:28.054Z,8
2023-03-26T04:38:29.016Z,8
2023-03-26T04:39:30.020Z,8
2023-03-26T04:40:31.056Z,8
2023-03-26T04:41:32.018Z,8
2023-03-26T04:42:33.051Z,8
2023-03-26T04:43:34.070Z,9
2023-03-26T04:44:35.144Z,7
2023-03-26T04:45:36.153Z,7
2023-03-26T04:46:37.106Z,8
2023-03-26T04:47:38.095Z,9
2023-03-26T04:48:39.094Z,9
2023-03-26T04:49:39.977Z,9
2023-03-26T04:50:40.996Z,9
2023-03-26T04:51:42.078Z,9
2023-03-26T04:52:45.073Z,9
2023-03-26T04:53:44.083Z,8
2023-03-26T04:54:44.995Z,8
2023-03-26T04:55:45.982Z,8
2023-03-26T04:56:47.049Z,8
2023-03-26T04:57:47.975Z,8
2023-03-26T04:58:49.057Z,8
2023-03-26T04:59:50.004Z,8
2023-03-26T05:00:51.068Z,8
2023-03-26T05:01:52.034Z,8
2023-03-26T05:02:53.080Z,8
2023-03-26T05:03:54.017Z,7
2023-03-26T05:04:55.026Z,7
2023-03-26T05:05:56.197Z,8
2023-03-26T05:06:57.054Z,8
2023-03-26T05:07:58.093Z,8
2023-03-26T05:08:59.073Z,8
2023-03-26T05:10:00.016Z,7
2023-03-26T05:11:01.095Z,8
2023-03-26T05:12:02.033Z,8
2023-03-26T05:13:03.031Z,8
2023-03-26T05:14:04.032Z,8
2023-03-26T05:15:05.259Z,8
2023-03-26T05:16:06.042Z,8
2023-03-26T05:17:06.973Z,8
2023-03-26T05:18:08.139Z,8
2023-03-26T05:19:09.050Z,8
2023-03-26T05:20:10.056Z,8
2023-03-26T05:21:11.115Z,8
2023-03-26T05:22:12.060Z,8
2023-03-26T05:23:12.953Z,8
2023-03-26T05:24:14.120Z,8
2023-03-26T05:25:15.080Z,8
2023-03-26T05:26:16.093Z,8
2023-03-26T05:27:17.032Z,8
2023-03-26T05:28:18.052Z,8
2023-03-26T05:29:18.998Z,8
2023-03-26T05:30:20.090Z,9
2023-03-26T05:31:21.079Z,9
2023-03-26T05:32:22.092Z,9
2023-03-26T05:33:23.142Z,9
2023-03-26T05:34:24.159Z,9
2023-03-26T05:35:25.080Z,9
2023-03-26T05:36:26.087Z,9
2023-03-26T05:37:27.115Z,9
2023-03-26T05:38:27.993Z,9
2023-03-26T05:39:29.036Z,9
2023-03-26T05:40:30.055Z,9
2023-03-26T05:41:31.033Z,9
2023-03-26T05:42:32.082Z,9
2023-03-26T05:43:33.111Z,8
2023-03-26T05:44:34.073Z,8
2023-03-26T05:45:35.062Z,8
2023-03-26T05:46:36.121Z,8
2023-03-26T05:47:37.025Z,8
2023-03-26T05:48:38.099Z,8
2023-03-26T05:49:39.015Z,8
2023-03-26T05:50:40.018Z,8
2023-03-26T05:51:41.104Z,8
2023-03-26T05:52:42.056Z,8
2023-03-26T05:53:43.100Z,8
2023-03-26T05:54:44.134Z,8
2023-03-26T05:55:45.127Z,8
2023-03-26T05:56:46.053Z,8
2023-03-26T05:57:47.075Z,8
2023-03-26T05:58:48.201Z,8
2023-03-26T05:59:49.134Z,8
2023-03-26T06:00:50.035Z,8
2023-03-26T06:01:51.131Z,8
2023-03-26T06:02:52.193Z,8
2023-03-26T06:03:53.356Z,8
2023-03-26T06:04:54.170Z,8
2023-03-26T06:05:55.060Z,8
2023-03-26T06:06:56.048Z,8
2023-03-26T06:07:57.136Z,9
2023-03-26T06:09:01.286Z,9
2023-03-26T06:09:59.052Z,9
2023-03-26T06:11:00.013Z,9
2023-03-26T06:12:01.057Z,11
2023-03-26T06:13:02.074Z,9
2023-03-26T06:14:03.093Z,9
2023-03-26T06:15:04.033Z,11
2023-03-26T06:16:05.059Z,11
2023-03-26T06:17:06.083Z,11
2023-03-26T06:18:07.083Z,11
2023-03-26T06:19:08.094Z,9
2023-03-26T06:20:09.607Z,9
2023-03-26T06:21:10.022Z,9
2023-03-26T06:22:11.085Z,9
2023-03-26T06:23:12.115Z,9
2023-03-26T06:24:13.072Z,11
2023-03-26T06:25:14.043Z,9
2023-03-26T06:26:15.112Z,9
2023-03-26T06:27:16.052Z,9
2023-03-26T06:28:17.062Z,9
2023-03-26T06:29:18.112Z,9
2023-03-26T06:30:19.132Z,9
2023-03-26T06:31:20.081Z,9
2023-03-26T06:32:21.036Z,10
2023-03-26T06:33:24.133Z,11
2023-03-26T06:34:23.132Z,11
2023-03-26T06:35:24.107Z,11
2023-03-26T06:36:25.033Z,11
2023-03-26T06:37:26.106Z,11
2023-03-26T06:38:27.017Z,12
2023-03-26T06:39:28.084Z,12
2023-03-26T06:40:29.116Z,12
2023-03-26T06:41:30.074Z,12
2023-03-26T06:42:32.111Z,12
2023-03-26T06:43:32.036Z,12
2023-03-26T06:44:33.163Z,12
2023-03-26T06:45:34.102Z,12
2023-03-26T06:46:35.087Z,12
2023-03-26T06:47:36.045Z,12
2023-03-26T06:48:37.106Z,12
2023-03-26T06:49:38.096Z,12
2023-03-26T06:50:39.114Z,12
2023-03-26T06:51:40.098Z,12
2023-03-26T06:52:41.136Z,12
2023-03-26T06:53:42.095Z,12
2023-03-26T06:54:43.101Z,12
2023-03-26T06:55:44.161Z,12
2023-03-26T06:56:45.252Z,11
2023-03-26T06:57:46.075Z,11
2023-03-26T06:58:47.058Z,12
2023-03-26T06:59:48.124Z,12
2023-03-26T07:00:49.064Z,11
2023-03-26T07:01:50.047Z,11
2023-03-26T07:02:51.159Z,11
2023-03-26T07:03:52.083Z,11
2023-03-26T07:04:53.562Z,11
2023-03-26T07:05:55.023Z,9
2023-03-26T07:06:56.122Z,11
2023-03-26T07:07:57.175Z,11
2023-03-26T07:08:58.178Z,11
2023-03-26T07:09:59.157Z,11
2023-03-26T07:11:00.168Z,11
2023-03-26T07:12:01.151Z,11
2023-03-26T07:13:02.093Z,11
2023-03-26T07:14:03.078Z,11
2023-03-26T07:15:04.106Z,11
2023-03-26T07:16:05.227Z,11
2023-03-26T07:17:06.055Z,11
2023-03-26T07:18:07.198Z,11
2023-03-26T07:19:08.187Z,11
2023-03-26T07:20:09.091Z,9
2023-03-26T07:21:10.150Z,11
2023-03-26T07:22:11.050Z,9
2023-03-26T07:23:12.050Z,11
2023-03-26T07:24:13.123Z,11
2023-03-26T07:25:14.137Z,11
2023-03-26T07:26:15.056Z,11
2023-03-26T07:27:16.098Z,9
2023-03-26T07:28:17.136Z,9
2023-03-26T07:29:18.276Z,9
2023-03-26T07:30:19.196Z,9
2023-03-26T07:31:20.158Z,9
2023-03-26T07:32:21.248Z,9
2023-03-26T07:33:22.485Z,9
2023-03-26T07:34:24.138Z,11
2023-03-26T07:35:25.146Z,11
2023-03-26T07:36:26.189Z,11
2023-03-26T07:37:27.142Z,11
2023-03-26T07:38:28.176Z,11
2023-03-26T07:39:29.017Z,11
2023-03-26T07:40:30.130Z,9
2023-03-26T07:41:31.208Z,9
2023-03-26T07:42:32.196Z,9
2023-03-26T07:43:33.064Z,9
2023-03-26T07:44:35.698Z,11
2023-03-26T07:45:35.143Z,11
2023-03-26T07:46:36.079Z,11
2023-03-26T07:47:37.108Z,11
2023-03-26T07:48:38.082Z,11
2023-03-26T07:49:39.098Z,12
2023-03-26T07:50:40.396Z,11
2023-03-26T07:51:41.141Z,11
2023-03-26T07:52:42.235Z,11
2023-03-26T07:53:43.056Z,12
2023-03-26T07:54:44.094Z,11
2023-03-26T07:55:45.114Z,11
2023-03-26T07:56:46.206Z,11
2023-03-26T07:57:47.135Z,11
2023-03-26T07:58:48.128Z,11
2023-03-26T07:59:49.142Z,11
2023-03-26T08:00:50.356Z,12
2023-03-26T08:01:51.163Z,13
2023-03-26T08:02:52.332Z,12
2023-03-26T08:03:55.700Z,12
2023-03-26T08:04:57.212Z,12
2023-03-26T08:05:58.146Z,11
2023-03-26T08:06:59.114Z,11
2023-03-26T08:08:00.108Z,11
2023-03-26T08:09:01.224Z,11
2023-03-26T08:10:02.213Z,11
2023-03-26T08:11:03.255Z,11
2023-03-26T08:12:04.147Z,11
2023-03-26T08:13:05.197Z,11
2023-03-26T08:14:06.073Z,11
2023-03-26T08:15:07.241Z,12
2023-03-26T08:16:08.299Z,11
2023-03-26T08:17:09.053Z,11
2023-03-26T08:18:10.167Z,11
2023-03-26T08:19:11.161Z,12
2023-03-26T08:20:12.108Z,12
2023-03-26T08:21:13.173Z,12
2023-03-26T08:22:14.093Z,11
2023-03-26T08:23:15.087Z,12
2023-03-26T08:24:16.146Z,12
2023-03-26T08:25:17.213Z,12
2023-03-26T08:26:18.223Z,12
2023-03-26T08:27:19.115Z,12
2023-03-26T08:28:22.298Z,12
2023-03-26T08:29:22.212Z,13
2023-03-26T08:30:23.261Z,12
2023-03-26T08:31:24.268Z,12
2023-03-26T08:32:25.197Z,12
2023-03-26T08:33:26.192Z,12
2023-03-26T08:34:27.156Z,12
2023-03-26T08:35:28.098Z,12
2023-03-26T08:36:29.093Z,11
2023-03-26T08:37:30.156Z,11
2023-03-26T08:38:31.172Z,11
2023-03-26T08:39:32.252Z,11
2023-03-26T08:40:33.224Z,11
2023-03-26T08:41:34.131Z,12
2023-03-26T08:42:35.231Z,11
2023-03-26T08:43:36.212Z,11
2023-03-26T08:44:37.217Z,12
2023-03-26T08:45:38.222Z,12
2023-03-26T08:46:39.217Z,12
2023-03-26T08:48:41.116Z,12
2023-03-26T08:49:42.144Z,12
2023-03-26T08:50:43.127Z,11
2023-03-26T08:51:44.113Z,11
2023-03-26T08:52:45.525Z,11
2023-03-26T08:53:46.137Z,11
2023-03-26T08:54:47.095Z,11
2023-03-26T08:55:48.101Z,11
2023-03-26T08:56:49.225Z,12
2023-03-26T08:57:50.113Z,12
2023-03-26T08:58:51.141Z,12
2023-03-26T08:59:52.214Z,12
2023-03-26T09:00:53.515Z,12
2023-03-26T09:01:54.257Z,12
2023-03-26T09:02:55.232Z,12
2023-03-26T09:03:56.198Z,11
2023-03-26T09:04:57.233Z,12
2023-03-26T09:05:58.139Z,12
2023-03-26T09:06:59.143Z,12
2023-03-26T09:08:00.114Z,12
2023-03-26T09:09:01.116Z,11
2023-03-26T09:10:02.641Z,11
2023-03-26T09:11:04.274Z,11
2023-03-26T09:12:05.274Z,9
2023-03-26T09:13:06.157Z,9
2023-03-26T09:14:07.203Z,9
2023-03-26T09:15:08.161Z,11
2023-03-26T09:16:09.152Z,9
2023-03-26T09:17:10.176Z,9
2023-03-26T09:18:11.220Z,8
2023-03-26T09:19:12.189Z,7
2023-03-26T09:20:13.382Z,7
2023-03-26T09:21:14.226Z,6
2023-03-26T09:22:15.135Z,7
2023-03-26T09:23:16.175Z,8
2023-03-26T09:24:17.276Z,8
2023-03-26T09:25:18.115Z,8
2023-03-26T09:26:19.154Z,9
2023-03-26T09:27:22.816Z,9
2023-03-26T09:28:24.256Z,11
2023-03-26T09:29:25.185Z,11
2023-03-26T09:30:26.140Z,12
2023-03-26T09:31:27.317Z,13
2023-03-26T09:32:28.180Z,13
2023-03-26T09:33:29.221Z,13
2023-03-26T09:34:30.132Z,14
2023-03-26T09:35:31.280Z,14
2023-03-26T09:36:32.202Z,14
2023-03-26T09:37:33.161Z,15
2023-03-26T09:38:34.092Z,14
2023-03-26T09:39:35.173Z,16
2023-03-26T09:40:36.217Z,17
2023-03-26T09:41:37.237Z,19
2023-03-26T09:42:38.145Z,18
2023-03-26T09:43:39.224Z,17
2023-03-26T09:44:40.195Z,17
2023-03-26T09:45:41.190Z,17
2023-03-26T09:46:42.240Z,17
2023-03-26T09:47:43.342Z,17
2023-03-26T09:48:44.101Z,17
2023-03-26T09:49:45.191Z,17
2023-03-26T09:50:46.164Z,17
2023-03-26T09:51:47.099Z,16
2023-03-26T09:52:48.200Z,16
2023-03-26T09:53:49.175Z,16
2023-03-26T09:54:50.148Z,16
2023-03-26T09:55:51.130Z,16
2023-03-26T09:56:52.213Z,16
2023-03-26T09:57:53.166Z,16
2023-03-26T09:58:54.161Z,16
2023-03-26T09:59:55.143Z,17
2023-03-26T10:00:56.336Z,18
2023-03-26T10:01:57.154Z,17
2023-03-26T10:02:58.244Z,17
2023-03-26T10:03:59.122Z,18
2023-03-26T10:05:00.124Z,16
2023-03-26T10:06:01.173Z,16
2023-03-26T10:07:02.671Z,16
2023-03-26T10:08:04.324Z,15
2023-03-26T10:09:05.176Z,15
2023-03-26T10:10:06.175Z,15
2023-03-26T10:11:07.336Z,16
2023-03-26T10:12:08.226Z,16
2023-03-26T10:13:14.717Z,16
2023-03-26T10:14:10.153Z,16
2023-03-26T10:15:11.176Z,17
2023-03-26T10:16:12.894Z,17
2023-03-26T10:17:14.214Z,18
2023-03-26T10:18:26.879Z,20
2023-03-26T10:19:16.227Z,17
2023-03-26T10:20:17.198Z,16
2023-03-26T10:21:18.207Z,15
2023-03-26T10:22:19.237Z,23
2023-03-26T10:23:20.136Z,18
2023-03-26T10:24:21.156Z,18
2023-03-26T10:25:22.220Z,16
2023-03-26T10:26:23.316Z,16
2023-03-26T10:27:24.792Z,16
2023-03-26T10:28:25.135Z,17
2023-03-26T10:29:26.218Z,18
2023-03-26T10:30:27.393Z,17
2023-03-26T10:31:28.463Z,14
2023-03-26T10:32:29.395Z,14
2023-03-26T10:33:30.222Z,13
2023-03-26T10:34:31.134Z,13
2023-03-26T10:35:32.320Z,12
2023-03-26T10:36:33.358Z,11
2023-03-26T10:37:34.201Z,12
2023-03-26T10:38:35.183Z,12
2023-03-26T10:39:37.925Z,12
2023-03-26T10:40:37.291Z,12
2023-03-26T10:41:38.257Z,11
2023-03-26T10:42:39.257Z,11
2023-03-26T10:43:40.380Z,11
2023-03-26T10:44:41.211Z,11
2023-03-26T10:45:42.169Z,11
2023-03-26T10:46:43.153Z,9
2023-03-26T10:47:44.310Z,9
2023-03-26T10:48:45.219Z,9
2023-03-26T10:49:46.154Z,11
2023-03-26T10:50:47.236Z,11
2023-03-26T10:51:48.401Z,11
2023-03-26T10:52:49.232Z,11
2023-03-26T10:53:50.226Z,11
2023-03-26T10:54:51.179Z,12
2023-03-26T10:55:52.324Z,15
2023-03-26T10:56:53.338Z,15
2023-03-26T10:57:54.292Z,16
2023-03-26T10:58:55.144Z,14
2023-03-26T10:59:56.336Z,15
2023-03-26T11:00:57.343Z,15
2023-03-26T11:01:58.367Z,16
2023-03-26T11:02:59.248Z,17
2023-03-26T11:04:00.421Z,17
2023-03-26T11:05:01.205Z,19
2023-03-26T11:06:02.249Z,19
2023-03-26T11:07:04.900Z,20
2023-03-26T11:08:04.313Z,20
2023-03-26T11:09:05.314Z,17
2023-03-26T11:10:06.334Z,17
2023-03-26T11:11:07.316Z,16
2023-03-26T11:12:25.370Z,15
2023-03-26T11:13:09.228Z,15
2023-03-26T11:14:10.468Z,15
2023-03-26T11:15:12.319Z,15
2023-03-26T11:16:13.325Z,15
2023-03-26T11:17:14.439Z,15
2023-03-26T11:18:15.343Z,14
2023-03-26T11:19:16.279Z,15
2023-03-26T11:20:17.254Z,14
2023-03-26T11:21:20.542Z,14
2023-03-26T11:22:19.316Z,14
2023-03-26T11:23:20.279Z,13
2023-03-26T11:24:21.239Z,14
2023-03-26T11:25:22.667Z,13
2023-03-26T11:26:24.359Z,13
2023-03-26T11:27:26.421Z,13
2023-03-26T11:28:26.199Z,13
2023-03-26T11:29:31.968Z,16
2023-03-26T11:30:28.367Z,15
2023-03-26T11:31:29.253Z,14
2023-03-26T11:32:30.247Z,14
2023-03-26T11:33:32.529Z,14
2023-03-26T11:34:32.414Z,14
2023-03-26T11:35:39.951Z,14
2023-03-26T11:36:35.239Z,14
2023-03-26T11:37:36.199Z,14
2023-03-26T11:38:37.207Z,13
2023-03-26T11:39:38.287Z,12
2023-03-26T11:40:39.305Z,12
2023-03-26T11:41:40.348Z,12
2023-03-26T11:42:41.254Z,13
2023-03-26T11:43:42.372Z,12
2023-03-26T11:44:43.343Z,12
2023-03-26T11:45:44.276Z,13
2023-03-26T11:46:45.311Z,12
2023-03-26T11:47:46.267Z,13
2023-03-26T11:48:47.265Z,13
2023-03-26T11:49:48.182Z,13
2023-03-26T11:50:49.234Z,13
2023-03-26T11:51:50.306Z,13
2023-03-26T11:52:51.302Z,13
2023-03-26T11:53:52.245Z,13
2023-03-26T11:54:53.332Z,12
2023-03-26T11:55:54.288Z,13
2023-03-26T11:57:04.266Z,14
2023-03-26T11:57:56.291Z,14
2023-03-26T11:58:57.289Z,14
2023-03-26T11:59:58.311Z,13
2023-03-26T12:00:59.245Z,13
2023-03-26T12:02:00.286Z,13
2023-03-26T12:03:01.265Z,13
2023-03-26T12:04:02.535Z,13
2023-03-26T12:05:03.661Z,13
2023-03-26T12:06:05.377Z,13
2023-03-26T12:07:06.180Z,13
2023-03-26T12:08:07.252Z,12
2023-03-26T12:09:08.242Z,12
2023-03-26T12:10:15.586Z,12
2023-03-26T12:11:10.323Z,13
2023-03-26T12:12:11.363Z,12
2023-03-26T12:13:12.264Z,11
2023-03-26T12:14:13.274Z,12
2023-03-26T12:15:14.240Z,11
2023-03-26T12:16:15.393Z,11
2023-03-26T12:17:16.399Z,9
2023-03-26T12:18:17.232Z,11
2023-03-26T12:19:18.233Z,11
2023-03-26T12:20:19.314Z,11
2023-03-26T12:21:20.282Z,11
2023-03-26T12:22:21.298Z,11
2023-03-26T12:23:22.348Z,12
2023-03-26T12:24:23.303Z,12
2023-03-26T12:25:24.224Z,11
2023-03-26T12:26:25.161Z,11
2023-03-26T12:27:26.220Z,11
2023-03-26T12:28:27.321Z,11
2023-03-26T12:29:28.240Z,12
2023-03-26T12:30:29.302Z,13
2023-03-26T12:31:30.425Z,13
2023-03-26T12:32:43.129Z,13
2023-03-26T12:33:32.372Z,12
2023-03-26T12:34:33.245Z,12
2023-03-26T12:35:34.342Z,12
2023-03-26T12:36:35.261Z,11
2023-03-26T12:37:36.334Z,11
2023-03-26T12:38:37.173Z,11
2023-03-26T12:40:06.407Z,11
2023-03-26T12:40:39.298Z,11
2023-03-26T12:42:26.015Z,11
2023-03-26T12:44:45.603Z,11
2023-03-26T12:44:45.797Z,12
2023-03-26T12:44:58.561Z,11
2023-03-26T12:45:45.267Z,11
2023-03-26T12:47:55.761Z,11
2023-03-26T12:47:56.735Z,11
2023-03-26T12:48:48.254Z,11
2023-03-26T12:49:49.346Z,12
2023-03-26T12:50:50.515Z,12
2023-03-26T12:51:51.369Z,9
2023-03-26T12:52:52.354Z,11
2023-03-26T12:53:53.316Z,11
2023-03-26T12:54:54.285Z,11
2023-03-26T12:55:55.341Z,12
2023-03-26T12:57:11.239Z,11
2023-03-26T12:57:57.260Z,11
2023-03-26T12:58:58.333Z,12
2023-03-26T12:59:59.308Z,11
2023-03-26T13:01:00.298Z,9
2023-03-26T13:02:01.405Z,11
2023-03-26T13:03:03.425Z,11
2023-03-26T13:04:04.340Z,11
2023-03-26T13:05:06.629Z,11
2023-03-26T13:06:06.463Z,11
2023-03-26T13:07:07.323Z,11
2023-03-26T13:08:08.315Z,12
2023-03-26T13:09:09.352Z,11
2023-03-26T13:10:10.333Z,11
2023-03-26T13:11:11.358Z,9
2023-03-26T13:12:12.446Z,9
2023-03-26T13:13:13.331Z,9
2023-03-26T13:14:14.309Z,11
2023-03-26T13:15:15.320Z,11
2023-03-26T13:16:16.280Z,9
2023-03-26T13:17:17.342Z,9
2023-03-26T13:18:18.325Z,9
2023-03-26T13:19:19.410Z,9
2023-03-26T13:20:20.436Z,9
2023-03-26T13:21:21.418Z,9
2023-03-26T13:22:22.370Z,9
2023-03-26T13:23:23.384Z,10
2023-03-26T13:24:24.341Z,9
2023-03-26T13:25:25.379Z,9
2023-03-26T13:26:26.775Z,9
2023-03-26T13:27:28.388Z,9
2023-03-26T13:28:29.320Z,9
2023-03-26T13:29:30.299Z,11
2023-03-26T13:30:31.411Z,11
2023-03-26T13:31:32.377Z,11
2023-03-26T13:32:33.364Z,12
2023-03-26T13:33:34.320Z,11
2023-03-26T13:34:35.374Z,11
2023-03-26T13:35:36.464Z,11
2023-03-26T13:36:37.459Z,11
2023-03-26T13:37:38.375Z,11
2023-03-26T13:38:39.301Z,11
2023-03-26T13:39:40.450Z,11
2023-03-26T13:40:41.384Z,11
2023-03-26T13:41:42.381Z,9
2023-03-26T13:42:43.355Z,9
2023-03-26T13:43:44.321Z,9
2023-03-26T13:44:45.286Z,9
2023-03-26T13:45:46.342Z,9
2023-03-26T13:46:47.350Z,9
2023-03-26T13:47:48.409Z,9
2023-03-26T13:48:49.312Z,9
2023-03-26T13:49:50.319Z,9
2023-03-26T13:50:52.313Z,9
2023-03-26T13:51:52.362Z,9
2023-03-26T13:52:53.307Z,9
2023-03-26T13:53:54.266Z,9
2023-03-26T13:54:55.337Z,9
2023-03-26T13:55:56.407Z,8
2023-03-26T13:56:57.385Z,9
2023-03-26T13:57:58.319Z,9
2023-03-26T13:58:59.334Z,8
2023-03-26T14:00:00.392Z,8
2023-03-26T14:01:01.464Z,8
2023-03-26T14:02:02.541Z,8
2023-03-26T14:03:03.347Z,9
2023-03-26T14:04:05.063Z,9
2023-03-26T14:05:06.303Z,9
2023-03-26T14:06:07.445Z,9
2023-03-26T14:07:08.325Z,8
2023-03-26T14:08:09.353Z,8
2023-03-26T14:09:10.326Z,8
2023-03-26T14:10:11.313Z,8
2023-03-26T14:11:12.380Z,8
2023-03-26T14:12:20.871Z,8
2023-03-26T14:13:14.359Z,9
2023-03-26T14:14:15.300Z,9
2023-03-26T14:15:16.353Z,9
2023-03-26T14:16:17.450Z,9
2023-03-26T14:17:18.378Z,9
2023-03-26T14:18:19.310Z,9
2023-03-26T14:19:20.278Z,9
2023-03-26T14:20:21.228Z,9
2023-03-26T14:21:22.304Z,9
2023-03-26T14:22:23.354Z,9
2023-03-26T14:23:24.323Z,9
2023-03-26T14:24:25.285Z,9
2023-03-26T14:25:26.369Z,9
2023-03-26T14:26:27.395Z,9
2023-03-26T14:27:28.397Z,9
2023-03-26T14:28:29.417Z,9
2023-03-26T14:29:30.243Z,8
2023-03-26T14:30:31.338Z,8
2023-03-26T14:31:32.321Z,9
2023-03-26T14:32:38.668Z,9
2023-03-26T14:33:40.308Z,9
2023-03-26T14:34:41.382Z,9
2023-03-26T14:35:42.287Z,9
2023-03-26T14:36:43.269Z,9
2023-03-26T14:37:44.276Z,11
2023-03-26T14:38:45.481Z,12
2023-03-26T14:39:46.614Z,11
2023-03-26T14:40:47.456Z,11
2023-03-26T14:41:48.362Z,11
2023-03-26T14:42:49.326Z,11